West Navigator — 3ERR2 — position and weather

sailwx.info

Track history (hours):
 
Tides and Currents Weather Stations Pressure Air Temp Water Temp Dewpoint Dewpoint Depression Visibility Wind Speed Wind Dir Waves Ship Positions

West Navigator

Last reported at 2014-Dec-19 09:00 UTC. Time now 2014-Dec-19 12:01 UTC.
Position N 67°18' E 007°24'.

Length 253 m; draft 15 m.

Type: Other ship. MMSI: 370144000.

Wind from 170 at 5 knots

Waves 3.5 meters (11 feet), 13 second period

Barometer 975.5 mb
Air temperature 3.6 ° C
Dewpoint 1.3 ° C

Date/timePositionNaut miles runAvg speedWind from/ knotsBaromVisibWave heightAir tempDewpointWater temp
2014-Dec-19 09:00N 67°18' E 007°24'0 0.0 170 / 5975.5 3.5 3.6 1.3
2014-Dec-19 06:00N 67°18' E 007°24'0 0.0 150 / 8974.6 3.5 3.9 1.9
2014-Dec-19 03:00N 67°18' E 007°24'0 0.0 160 / 13975.1 4.0 3.3 1.1
2014-Dec-19 00:00N 67°18' E 007°24'0 0.0 190 / 7975.8 4.0 5.0-0.1
2014-Dec-18 21:00N 67°18' E 007°24'0 0.0 220 / 12975.3 4.5 3.5 2.1
2014-Dec-18 18:00N 67°18' E 007°24'0 0.0 110 / 29973.9 4.0 4.5 2.7
2014-Dec-18 15:00N 67°18' E 007°24'0 0.0 120 / 26976.4 3.5 4.5 2.7
2014-Dec-18 12:00N 67°18' E 007°24'0 0.0 130 / 14978.5 3.5 6.1 2.0
2014-Dec-18 06:00N 67°18' E 007°24'0 0.0 120 / 21981.4 3.5 4.1-1.5
2014-Dec-18 03:00N 67°18' E 007°24'0 0.0 130 / 19983.0 3.5 4.4-1.7
2014-Dec-18 00:00N 67°18' E 007°24'0 0.0 140 / 24984.8 3.0 5.1 0.2
2014-Dec-17 21:00N 67°18' E 007°24'0 0.0 130 / 20986.3 3.0 4.6-0.2
2014-Dec-17 18:00N 67°18' E 007°24'0 0.0 150 / 25987.8 3.0 5.0-0.9
2014-Dec-17 15:00N 67°18' E 007°24'0 0.0 150 / 22989.8 2.5 5.1-0.0
2014-Dec-17 12:00N 67°18' E 007°24'0 0.0 160 / 18991.7 2.5 4.9-1.9
2014-Dec-17 09:00N 67°18' E 007°24'0 0.0 120 / 17993.0 2.5 5.1 0.9
2014-Dec-17 06:00N 67°18' E 007°24'0 0.0 110 / 12993.7 3.0 4.6 0.9
2014-Dec-17 03:00N 67°18' E 007°24'0 0.0 120 / 5994.5 2.5 4.5 1.3
2014-Dec-17 00:00N 67°18' E 007°24'0 0.0 060 / 12995.0 2.5 4.0 1.6
2014-Dec-16 21:00N 67°18' E 007°24'0 0.0 010 / 2994.5 2.5 5.5-2.0
2014-Dec-16 18:00N 67°18' E 007°24'0 0.0 060 / 4993.6 2.5 5.7-0.9
2014-Dec-16 00:00N 67°18' E 007°24'0 0.0 170 / 20 gusting 39979.9 4.8 2.4-0.6
2014-Dec-15 21:00N 67°18' E 007°24'0 0.0 170 / 21978.8 5.6 3.3-2.4
2014-Dec-15 18:00N 67°18' E 007°24'0 0.0 170 / 24 gusting 47977.1 5.7 3.1-2.4
2014-Dec-15 15:00N 67°18' E 007°24'0 0.0 170 / 23976.2 6.3 2.9-1.6
2014-Dec-15 12:00N 67°18' E 007°24'0 0.0 190 / 19 gusting 38975.8 5.6 3.6-2.4
2014-Dec-15 09:00N 67°18' E 007°24'0 0.0 220 / 24973.0 5.6 4.5-1.8
2014-Dec-15 06:10N 67°18' E 007°24'0 0.0 200 / 25 gusting 44969.2 5.3 5.7 2.1
2014-Dec-15 03:00N 67°18' E 007°24'0 0.0 190 / 26968.1 4.8 5.8 1.1
2014-Dec-15 00:00N 67°18' E 007°24'0 0.0 170 / 30 gusting 48969.8 6.0 6.7 2.2
2014-Dec-14 21:00N 67°18' E 007°24'0 0.0 140 / 33971.6 5.5 5.4 4.0
2014-Dec-14 18:00N 67°18' E 007°24'0 0.0 120 / 32 gusting 43973.2 5.2 4.8 2.7
2014-Dec-14 15:00N 67°18' E 007°24'0 0.0 140 / 32977.6 4.4 4.2 1.9
2014-Dec-14 12:00N 67°18' E 007°24'0 0.0 160 / 31 gusting 38981.3 3.1 5.2 0.4
2014-Dec-14 09:00N 67°18' E 007°24'0 0.0 140 / 19984.9 2.7 4.1-1.6
2014-Dec-14 06:00N 67°18' E 007°24'0 0.0 160 / 13 gusting 20986.7 3.4 4.1-3.2
2014-Dec-14 03:00N 67°18' E 007°24'0 0.0 200 / 7987.6 3.5 2.5-5.5
2014-Dec-14 00:00N 67°18' E 007°24'0 0.0 250 / 15987.6 3.5 2.2-5.8
2014-Dec-13 00:00N 67°18' E 007°24'0 0.0 160 / 19976.4 3.5 5.1 1.8
2014-Dec-12 21:00N 67°18' E 007°24'0 0.0 170 / 20977.0 3.5 5.2 0.5
2014-Dec-12 15:00N 67°18' E 007°24'0 0.0 140 / 18977.2 3.5 5.8 2.4
2014-Dec-12 12:00N 67°18' E 007°24'0 0.0 130 / 20977.5 3.5 6.0 2.0
2014-Dec-12 09:00N 67°18' E 007°24'0 0.0 120 / 16978.3 4.0 5.8 2.8
2014-Dec-12 03:00N 67°18' E 007°24'0 0.0 120 / 23976.3 3.5 6.5 3.2
2014-Dec-12 00:00N 67°18' E 007°24'0 0.0 130 / 17976.5 4.0 4.3 2.9
2014-Dec-11 21:00N 67°18' E 007°24'0 0.0 120 / 25975.7 4.0 5.3 2.4
2014-Dec-11 18:00N 67°18' E 007°24'0 0.0 120 / 24974.0 4.5 6.4 2.7
2014-Dec-11 15:00N 67°18' E 007°24'0 0.0 130 / 21973.3 4.5 6.2 2.9
2014-Dec-11 12:00N 67°18' E 007°24'0 0.0 130 / 16973.1 5.0 5.8 3.3
2014-Dec-11 09:00N 67°18' E 007°24'0 0.0 140 / 19972.1 5.0 5.9 3.0
2014-Dec-11 06:00N 67°18' E 007°24'0 0.0 160 / 18970.8 5.0 5.8 3.5
2014-Dec-11 00:10N 67°18' E 007°24'0 0.0 140 / 23970.4 5.0 5.1 3.7
2014-Dec-10 21:00N 67°18' E 007°24'0 0.0 160 / 28971.5 4.5 5.6 1.7
2014-Dec-10 12:00N 67°18' E 007°24'0 0.0 200 / 20974.4 5.5 5.2-0.0
2014-Dec-10 09:00N 67°18' E 007°24'0 0.0 190 / 11974.5 5.5 4.5 0.8
2014-Dec-10 06:00N 67°18' E 007°24'0 0.0 230 / 21973.0 6.0 5.7-0.7
2014-Dec-10 03:00N 67°18' E 007°24'0 0.0 200 / 14972.8 7.5 5.2 1.8
2014-Dec-10 00:00N 67°18' E 007°24'0 0.0 150 / 25974.1 6.0 5.0 3.8
2014-Dec-09 21:00N 67°18' E 007°24'0 0.0 140 / 29978.9 4.0 3.9 1.7
2014-Dec-09 18:00N 67°18' E 007°24'0 0.0 160 / 22987.7 3.0 2.5 2.0
2014-Dec-09 12:00N 67°18' E 007°24'0 0.0 200 / 151000.0 3.0 2.5-4.4
2014-Dec-09 09:00N 67°18' E 007°24'   230 / 51003.6 3.0 1.3-1.7
Track history (hours):
 
Tides and Currents Weather Stations Pressure Air Temp Water Temp Dewpoint Dewpoint Depression Visibility Wind Speed Wind Dir Waves Ship Positions

West Navigator

Last reported at 2014-Dec-19 09:00 UTC. Time now 2014-Dec-19 12:01 UTC.
Position N 67°18' E 007°24'.

Length 253 m; draft 15 m.

Type: Other ship. MMSI: 370144000.

Wind from 170 at 5 knots

Waves 3.5 meters (11 feet), 13 second period

Barometer 975.5 mb
Air temperature 3.6 ° C
Dewpoint 1.3 ° C

Date/timePositionNaut miles runAvg speedWind from/ knotsBaromVisibWave heightAir tempDewpointWater temp
2014-Dec-19 09:00N 67°18' E 007°24'0 0.0 170 / 5975.5 3.5 3.6 1.3
2014-Dec-19 06:00N 67°18' E 007°24'0 0.0 150 / 8974.6 3.5 3.9 1.9
2014-Dec-19 03:00N 67°18' E 007°24'0 0.0 160 / 13975.1 4.0 3.3 1.1
2014-Dec-19 00:00N 67°18' E 007°24'0 0.0 190 / 7975.8 4.0 5.0-0.1
2014-Dec-18 21:00N 67°18' E 007°24'0 0.0 220 / 12975.3 4.5 3.5 2.1
2014-Dec-18 18:00N 67°18' E 007°24'0 0.0 110 / 29973.9 4.0 4.5 2.7
2014-Dec-18 15:00N 67°18' E 007°24'0 0.0 120 / 26976.4 3.5 4.5 2.7
2014-Dec-18 12:00N 67°18' E 007°24'0 0.0 130 / 14978.5 3.5 6.1 2.0
2014-Dec-18 06:00N 67°18' E 007°24'0 0.0 120 / 21981.4 3.5 4.1-1.5
2014-Dec-18 03:00N 67°18' E 007°24'0 0.0 130 / 19983.0 3.5 4.4-1.7
2014-Dec-18 00:00N 67°18' E 007°24'0 0.0 140 / 24984.8 3.0 5.1 0.2
2014-Dec-17 21:00N 67°18' E 007°24'0 0.0 130 / 20986.3 3.0 4.6-0.2
2014-Dec-17 18:00N 67°18' E 007°24'0 0.0 150 / 25987.8 3.0 5.0-0.9
2014-Dec-17 15:00N 67°18' E 007°24'0 0.0 150 / 22989.8 2.5 5.1-0.0
2014-Dec-17 12:00N 67°18' E 007°24'0 0.0 160 / 18991.7 2.5 4.9-1.9
2014-Dec-17 09:00N 67°18' E 007°24'0 0.0 120 / 17993.0 2.5 5.1 0.9
2014-Dec-17 06:00N 67°18' E 007°24'0 0.0 110 / 12993.7 3.0 4.6 0.9
2014-Dec-17 03:00N 67°18' E 007°24'0 0.0 120 / 5994.5 2.5 4.5 1.3
2014-Dec-17 00:00N 67°18' E 007°24'0 0.0 060 / 12995.0 2.5 4.0 1.6
2014-Dec-16 21:00N 67°18' E 007°24'0 0.0 010 / 2994.5 2.5 5.5-2.0
2014-Dec-16 18:00N 67°18' E 007°24'0 0.0 060 / 4993.6 2.5 5.7-0.9
2014-Dec-16 00:00N 67°18' E 007°24'0 0.0 170 / 20 gusting 39979.9 4.8 2.4-0.6
2014-Dec-15 21:00N 67°18' E 007°24'0 0.0 170 / 21978.8 5.6 3.3-2.4
2014-Dec-15 18:00N 67°18' E 007°24'0 0.0 170 / 24 gusting 47977.1 5.7 3.1-2.4
2014-Dec-15 15:00N 67°18' E 007°24'0 0.0 170 / 23976.2 6.3 2.9-1.6
2014-Dec-15 12:00N 67°18' E 007°24'0 0.0 190 / 19 gusting 38975.8 5.6 3.6-2.4
2014-Dec-15 09:00N 67°18' E 007°24'0 0.0 220 / 24973.0 5.6 4.5-1.8
2014-Dec-15 06:10N 67°18' E 007°24'0 0.0 200 / 25 gusting 44969.2 5.3 5.7 2.1
2014-Dec-15 03:00N 67°18' E 007°24'0 0.0 190 / 26968.1 4.8 5.8 1.1
2014-Dec-15 00:00N 67°18' E 007°24'0 0.0 170 / 30 gusting 48969.8 6.0 6.7 2.2
2014-Dec-14 21:00N 67°18' E 007°24'0 0.0 140 / 33971.6 5.5 5.4 4.0
2014-Dec-14 18:00N 67°18' E 007°24'0 0.0 120 / 32 gusting 43973.2 5.2 4.8 2.7
2014-Dec-14 15:00N 67°18' E 007°24'0 0.0 140 / 32977.6 4.4 4.2 1.9
2014-Dec-14 12:00N 67°18' E 007°24'0 0.0 160 / 31 gusting 38981.3 3.1 5.2 0.4
2014-Dec-14 09:00N 67°18' E 007°24'0 0.0 140 / 19984.9 2.7 4.1-1.6
2014-Dec-14 06:00N 67°18' E 007°24'0 0.0 160 / 13 gusting 20986.7 3.4 4.1-3.2
2014-Dec-14 03:00N 67°18' E 007°24'0 0.0 200 / 7987.6 3.5 2.5-5.5
2014-Dec-14 00:00N 67°18' E 007°24'0 0.0 250 / 15987.6 3.5 2.2-5.8
2014-Dec-13 00:00N 67°18' E 007°24'0 0.0 160 / 19976.4 3.5 5.1 1.8
2014-Dec-12 21:00N 67°18' E 007°24'0 0.0 170 / 20977.0 3.5 5.2 0.5
2014-Dec-12 15:00N 67°18' E 007°24'0 0.0 140 / 18977.2 3.5 5.8 2.4
2014-Dec-12 12:00N 67°18' E 007°24'0 0.0 130 / 20977.5 3.5 6.0 2.0
2014-Dec-12 09:00N 67°18' E 007°24'0 0.0 120 / 16978.3 4.0 5.8 2.8
2014-Dec-12 03:00N 67°18' E 007°24'0 0.0 120 / 23976.3 3.5 6.5 3.2
2014-Dec-12 00:00N 67°18' E 007°24'0 0.0 130 / 17976.5 4.0 4.3 2.9
2014-Dec-11 21:00N 67°18' E 007°24'0 0.0 120 / 25975.7 4.0 5.3 2.4
2014-Dec-11 18:00N 67°18' E 007°24'0 0.0 120 / 24974.0 4.5 6.4 2.7
2014-Dec-11 15:00N 67°18' E 007°24'0 0.0 130 / 21973.3 4.5 6.2 2.9
2014-Dec-11 12:00N 67°18' E 007°24'0 0.0 130 / 16973.1 5.0 5.8 3.3
2014-Dec-11 09:00N 67°18' E 007°24'0 0.0 140 / 19972.1 5.0 5.9 3.0
2014-Dec-11 06:00N 67°18' E 007°24'0 0.0 160 / 18970.8 5.0 5.8 3.5
2014-Dec-11 00:10N 67°18' E 007°24'0 0.0 140 / 23970.4 5.0 5.1 3.7
2014-Dec-10 21:00N 67°18' E 007°24'0 0.0 160 / 28971.5 4.5 5.6 1.7
2014-Dec-10 12:00N 67°18' E 007°24'0 0.0 200 / 20974.4 5.5 5.2-0.0
2014-Dec-10 09:00N 67°18' E 007°24'0 0.0 190 / 11974.5 5.5 4.5 0.8
2014-Dec-10 06:00N 67°18' E 007°24'0 0.0 230 / 21973.0 6.0 5.7-0.7
2014-Dec-10 03:00N 67°18' E 007°24'0 0.0 200 / 14972.8 7.5 5.2 1.8
2014-Dec-10 00:00N 67°18' E 007°24'0 0.0 150 / 25974.1 6.0 5.0 3.8
2014-Dec-09 21:00N 67°18' E 007°24'0 0.0 140 / 29978.9 4.0 3.9 1.7
2014-Dec-09 18:00N 67°18' E 007°24'0 0.0 160 / 22987.7 3.0 2.5 2.0
2014-Dec-09 12:00N 67°18' E 007°24'0 0.0 200 / 151000.0 3.0 2.5-4.4
2014-Dec-09 09:00N 67°18' E 007°24'   230 / 51003.6 3.0 1.3-1.7

Dump ship's entire track history